sensor_id;sensor_type;location;lat;lon;timestamp;P1;durP1;ratioP1;P2;durP2;ratioP2
40945;SDS011;55635;50.264;11.918;2023-10-08T00:01:04;4.93;;;3.67;;
40945;SDS011;55635;50.264;11.918;2023-10-08T00:03:51;10.13;;;3.55;;
40945;SDS011;55635;50.264;11.918;2023-10-08T00:06:38;5.70;;;3.38;;
40945;SDS011;55635;50.264;11.918;2023-10-08T00:09:19;7.03;;;3.83;;
40945;SDS011;55635;50.264;11.918;2023-10-08T00:12:01;5.63;;;3.80;;
40945;SDS011;55635;50.264;11.918;2023-10-08T00:14:43;8.32;;;3.70;;
40945;SDS011;55635;50.264;11.918;2023-10-08T00:17:24;6.70;;;4.18;;
40945;SDS011;55635;50.264;11.918;2023-10-08T00:20:06;8.02;;;4.05;;
40945;SDS011;55635;50.264;11.918;2023-10-08T00:22:48;5.57;;;3.47;;
40945;SDS011;55635;50.264;11.918;2023-10-08T00:25:29;7.35;;;4.20;;
40945;SDS011;55635;50.264;11.918;2023-10-08T00:28:14;5.93;;;3.63;;
40945;SDS011;55635;50.264;11.918;2023-10-08T00:30:55;8.20;;;3.70;;
40945;SDS011;55635;50.264;11.918;2023-10-08T00:33:38;7.70;;;3.80;;
40945;SDS011;55635;50.264;11.918;2023-10-08T00:36:24;6.18;;;3.50;;
40945;SDS011;55635;50.264;11.918;2023-10-08T00:39:05;5.32;;;3.47;;
40945;SDS011;55635;50.264;11.918;2023-10-08T00:41:53;6.30;;;3.38;;
40945;SDS011;55635;50.264;11.918;2023-10-08T00:44:44;6.68;;;3.67;;
40945;SDS011;55635;50.264;11.918;2023-10-08T00:47:31;7.60;;;3.83;;
40945;SDS011;55635;50.264;11.918;2023-10-08T00:50:17;9.88;;;3.83;;
40945;SDS011;55635;50.264;11.918;2023-10-08T00:53:01;5.55;;;3.30;;
40945;SDS011;55635;50.264;11.918;2023-10-08T00:55:50;7.70;;;3.72;;
40945;SDS011;55635;50.264;11.918;2023-10-08T01:01:21;4.95;;;3.22;;
40945;SDS011;55635;50.264;11.918;2023-10-08T01:04:03;9.50;;;3.83;;
40945;SDS011;55635;50.264;11.918;2023-10-08T01:06:53;12.95;;;3.63;;
40945;SDS011;55635;50.264;11.918;2023-10-08T01:09:42;9.50;;;4.28;;
40945;SDS011;55635;50.264;11.918;2023-10-08T01:12:28;7.15;;;3.83;;
40945;SDS011;55635;50.264;11.918;2023-10-08T01:15:14;6.72;;;3.65;;
40945;SDS011;55635;50.264;11.918;2023-10-08T01:18:03;7.13;;;3.60;;
40945;SDS011;55635;50.264;11.918;2023-10-08T01:20:46;7.03;;;4.13;;
40945;SDS011;55635;50.264;11.918;2023-10-08T01:23:27;7.60;;;3.65;;
40945;SDS011;55635;50.264;11.918;2023-10-08T01:26:08;7.65;;;3.53;;
40945;SDS011;55635;50.264;11.918;2023-10-08T01:28:55;9.00;;;4.45;;
40945;SDS011;55635;50.264;11.918;2023-10-08T01:31:36;7.32;;;3.60;;
40945;SDS011;55635;50.264;11.918;2023-10-08T01:34:17;6.32;;;3.35;;
40945;SDS011;55635;50.264;11.918;2023-10-08T01:36:58;8.43;;;3.67;;
40945;SDS011;55635;50.264;11.918;2023-10-08T01:39:46;7.75;;;4.28;;
40945;SDS011;55635;50.264;11.918;2023-10-08T01:42:30;5.88;;;3.55;;
40945;SDS011;55635;50.264;11.918;2023-10-08T01:45:13;6.68;;;3.70;;
40945;SDS011;55635;50.264;11.918;2023-10-08T01:47:58;6.18;;;4.00;;
40945;SDS011;55635;50.264;11.918;2023-10-08T01:50:39;10.57;;;3.58;;
40945;SDS011;55635;50.264;11.918;2023-10-08T01:53:20;6.97;;;3.70;;
40945;SDS011;55635;50.264;11.918;2023-10-08T01:56:01;6.55;;;4.10;;
40945;SDS011;55635;50.264;11.918;2023-10-08T01:58:44;6.45;;;4.05;;
40945;SDS011;55635;50.264;11.918;2023-10-08T02:01:26;5.97;;;3.65;;
40945;SDS011;55635;50.264;11.918;2023-10-08T02:04:08;7.13;;;3.67;;
40945;SDS011;55635;50.264;11.918;2023-10-08T02:06:52;6.93;;;4.15;;
40945;SDS011;55635;50.264;11.918;2023-10-08T02:09:33;11.45;;;3.92;;
40945;SDS011;55635;50.264;11.918;2023-10-08T02:12:14;8.07;;;4.05;;
40945;SDS011;55635;50.264;11.918;2023-10-08T02:14:55;6.45;;;3.50;;
40945;SDS011;55635;50.264;11.918;2023-10-08T02:17:37;7.82;;;3.65;;
40945;SDS011;55635;50.264;11.918;2023-10-08T02:20:18;7.45;;;4.10;;
40945;SDS011;55635;50.264;11.918;2023-10-08T02:22:59;7.35;;;3.65;;
40945;SDS011;55635;50.264;11.918;2023-10-08T02:25:40;7.18;;;3.85;;
40945;SDS011;55635;50.264;11.918;2023-10-08T02:28:21;6.63;;;3.70;;
40945;SDS011;55635;50.264;11.918;2023-10-08T02:31:04;10.65;;;3.83;;
40945;SDS011;55635;50.264;11.918;2023-10-08T02:33:45;8.32;;;3.33;;
40945;SDS011;55635;50.264;11.918;2023-10-08T02:36:26;12.35;;;3.78;;
40945;SDS011;55635;50.264;11.918;2023-10-08T02:39:07;7.68;;;4.38;;
40945;SDS011;55635;50.264;11.918;2023-10-08T02:42:01;7.38;;;3.42;;
40945;SDS011;55635;50.264;11.918;2023-10-08T02:44:42;5.70;;;3.60;;
40945;SDS011;55635;50.264;11.918;2023-10-08T02:47:23;10.07;;;4.22;;
40945;SDS011;55635;50.264;11.918;2023-10-08T02:50:04;7.20;;;4.05;;
40945;SDS011;55635;50.264;11.918;2023-10-08T02:52:49;6.60;;;3.50;;
40945;SDS011;55635;50.264;11.918;2023-10-08T02:55:30;8.75;;;4.43;;
40945;SDS011;55635;50.264;11.918;2023-10-08T02:58:22;6.18;;;3.88;;
40945;SDS011;55635;50.264;11.918;2023-10-08T03:01:05;8.63;;;4.30;;
40945;SDS011;55635;50.264;11.918;2023-10-08T03:03:49;7.05;;;3.75;;
40945;SDS011;55635;50.264;11.918;2023-10-08T03:06:34;8.05;;;3.72;;
40945;SDS011;55635;50.264;11.918;2023-10-08T03:09:16;6.82;;;3.70;;
40945;SDS011;55635;50.264;11.918;2023-10-08T03:12:03;7.80;;;4.13;;
40945;SDS011;55635;50.264;11.918;2023-10-08T03:14:49;7.75;;;4.45;;
40945;SDS011;55635;50.264;11.918;2023-10-08T03:17:41;8.90;;;3.85;;
40945;SDS011;55635;50.264;11.918;2023-10-08T03:20:31;5.93;;;3.53;;
40945;SDS011;55635;50.264;11.918;2023-10-08T03:23:26;8.82;;;4.22;;
40945;SDS011;55635;50.264;11.918;2023-10-08T03:26:23;7.38;;;3.60;;
40945;SDS011;55635;50.264;11.918;2023-10-08T03:29:10;10.55;;;3.63;;
40945;SDS011;55635;50.264;11.918;2023-10-08T03:31:58;9.35;;;3.70;;
40945;SDS011;55635;50.264;11.918;2023-10-08T03:34:47;5.78;;;3.83;;
40945;SDS011;55635;50.264;11.918;2023-10-08T03:37:29;6.47;;;3.67;;
40945;SDS011;55635;50.264;11.918;2023-10-08T03:40:20;6.88;;;4.32;;
40945;SDS011;55635;50.264;11.918;2023-10-08T03:43:22;9.57;;;4.03;;
40945;SDS011;55635;50.264;11.918;2023-10-08T03:46:14;10.82;;;4.75;;
40945;SDS011;55635;50.264;11.918;2023-10-08T03:48:56;10.20;;;4.35;;
40945;SDS011;55635;50.264;11.918;2023-10-08T03:51:37;8.73;;;4.22;;
40945;SDS011;55635;50.264;11.918;2023-10-08T03:54:21;8.32;;;3.92;;
40945;SDS011;55635;50.264;11.918;2023-10-08T03:57:15;6.05;;;3.95;;
40945;SDS011;55635;50.264;11.918;2023-10-08T04:00:05;10.38;;;4.28;;
40945;SDS011;55635;50.264;11.918;2023-10-08T04:03:00;8.23;;;3.60;;
40945;SDS011;55635;50.264;11.918;2023-10-08T04:05:48;12.73;;;4.95;;
40945;SDS011;55635;50.264;11.918;2023-10-08T04:08:55;6.25;;;3.88;;
40945;SDS011;55635;50.264;11.918;2023-10-08T04:11:49;6.57;;;4.05;;
40945;SDS011;55635;50.264;11.918;2023-10-08T04:14:31;10.00;;;4.50;;
40945;SDS011;55635;50.264;11.918;2023-10-08T04:17:12;7.05;;;4.10;;
40945;SDS011;55635;50.264;11.918;2023-10-08T04:19:54;6.68;;;3.80;;
40945;SDS011;55635;50.264;11.918;2023-10-08T04:22:35;10.00;;;3.95;;
40945;SDS011;55635;50.264;11.918;2023-10-08T04:25:17;7.72;;;4.00;;
40945;SDS011;55635;50.264;11.918;2023-10-08T04:28:00;10.77;;;4.35;;
40945;SDS011;55635;50.264;11.918;2023-10-08T04:30:41;9.15;;;4.00;;
40945;SDS011;55635;50.264;11.918;2023-10-08T04:33:23;7.68;;;3.95;;
40945;SDS011;55635;50.264;11.918;2023-10-08T04:36:04;5.13;;;3.92;;
40945;SDS011;55635;50.264;11.918;2023-10-08T04:38:47;9.77;;;4.45;;
40945;SDS011;55635;50.264;11.918;2023-10-08T04:41:28;9.18;;;4.35;;
40945;SDS011;55635;50.264;11.918;2023-10-08T04:44:09;9.77;;;4.43;;
40945;SDS011;55635;50.264;11.918;2023-10-08T04:46:54;6.90;;;4.40;;
40945;SDS011;55635;50.264;11.918;2023-10-08T04:49:35;8.30;;;4.10;;
40945;SDS011;55635;50.264;11.918;2023-10-08T04:55:08;5.40;;;3.15;;
40945;SDS011;55635;50.264;11.918;2023-10-08T04:57:52;9.98;;;5.03;;
40945;SDS011;55635;50.264;11.918;2023-10-08T05:00:33;7.60;;;3.83;;
40945;SDS011;55635;50.264;11.918;2023-10-08T05:03:22;7.28;;;4.15;;
40945;SDS011;55635;50.264;11.918;2023-10-08T05:06:03;7.60;;;4.20;;
40945;SDS011;55635;50.264;11.918;2023-10-08T05:09:11;12.25;;;4.55;;
40945;SDS011;55635;50.264;11.918;2023-10-08T05:12:03;8.10;;;4.05;;
40945;SDS011;55635;50.264;11.918;2023-10-08T05:15:02;13.48;;;5.15;;
40945;SDS011;55635;50.264;11.918;2023-10-08T05:18:09;10.77;;;4.35;;
40945;SDS011;55635;50.264;11.918;2023-10-08T05:21:03;11.75;;;4.80;;
40945;SDS011;55635;50.264;11.918;2023-10-08T05:24:04;9.65;;;5.00;;
40945;SDS011;55635;50.264;11.918;2023-10-08T05:26:48;10.10;;;4.47;;
40945;SDS011;55635;50.264;11.918;2023-10-08T05:29:39;8.07;;;4.22;;
40945;SDS011;55635;50.264;11.918;2023-10-08T05:32:40;10.18;;;4.75;;
40945;SDS011;55635;50.264;11.918;2023-10-08T05:35:45;9.13;;;5.10;;
40945;SDS011;55635;50.264;11.918;2023-10-08T05:38:28;10.70;;;4.32;;
40945;SDS011;55635;50.264;11.918;2023-10-08T05:41:10;8.02;;;4.63;;
40945;SDS011;55635;50.264;11.918;2023-10-08T05:44:07;12.20;;;5.43;;
40945;SDS011;55635;50.264;11.918;2023-10-08T05:47:01;7.82;;;5.13;;
40945;SDS011;55635;50.264;11.918;2023-10-08T05:49:54;8.30;;;4.68;;
40945;SDS011;55635;50.264;11.918;2023-10-08T05:52:54;10.25;;;4.72;;
40945;SDS011;55635;50.264;11.918;2023-10-08T05:55:38;9.10;;;4.78;;
40945;SDS011;55635;50.264;11.918;2023-10-08T05:58:27;12.27;;;5.25;;
40945;SDS011;55635;50.264;11.918;2023-10-08T06:01:25;8.52;;;4.28;;
40945;SDS011;55635;50.264;11.918;2023-10-08T06:04:20;12.77;;;4.40;;
40945;SDS011;55635;50.264;11.918;2023-10-08T06:07:11;9.10;;;4.93;;
40945;SDS011;55635;50.264;11.918;2023-10-08T06:09:57;9.73;;;4.53;;
40945;SDS011;55635;50.264;11.918;2023-10-08T06:12:53;9.60;;;4.53;;
40945;SDS011;55635;50.264;11.918;2023-10-08T06:15:42;13.27;;;4.55;;
40945;SDS011;55635;50.264;11.918;2023-10-08T06:18:29;10.68;;;4.22;;
40945;SDS011;55635;50.264;11.918;2023-10-08T06:21:11;9.88;;;4.68;;
40945;SDS011;55635;50.264;11.918;2023-10-08T06:23:55;13.38;;;4.43;;
40945;SDS011;55635;50.264;11.918;2023-10-08T06:26:37;7.53;;;4.45;;
40945;SDS011;55635;50.264;11.918;2023-10-08T06:29:28;8.95;;;4.78;;
40945;SDS011;55635;50.264;11.918;2023-10-08T06:32:10;7.38;;;4.65;;
40945;SDS011;55635;50.264;11.918;2023-10-08T06:34:52;9.63;;;4.85;;
40945;SDS011;55635;50.264;11.918;2023-10-08T06:37:32;7.03;;;4.60;;
40945;SDS011;55635;50.264;11.918;2023-10-08T06:40:17;9.68;;;4.82;;
40945;SDS011;55635;50.264;11.918;2023-10-08T06:43:16;12.80;;;4.68;;
40945;SDS011;55635;50.264;11.918;2023-10-08T06:46:05;12.73;;;4.60;;
40945;SDS011;55635;50.264;11.918;2023-10-08T06:48:52;8.75;;;4.80;;
40945;SDS011;55635;50.264;11.918;2023-10-08T06:51:33;11.27;;;4.90;;
40945;SDS011;55635;50.264;11.918;2023-10-08T06:54:16;8.93;;;4.68;;
40945;SDS011;55635;50.264;11.918;2023-10-08T06:56:58;9.63;;;5.10;;
40945;SDS011;55635;50.264;11.918;2023-10-08T06:59:40;10.07;;;4.70;;
40945;SDS011;55635;50.264;11.918;2023-10-08T07:02:22;6.57;;;5.30;;
40945;SDS011;55635;50.264;11.918;2023-10-08T07:05:06;14.05;;;7.10;;
40945;SDS011;55635;50.264;11.918;2023-10-08T07:07:49;10.95;;;8.65;;
40945;SDS011;55635;50.264;11.918;2023-10-08T07:10:33;12.32;;;9.88;;
40945;SDS011;55635;50.264;11.918;2023-10-08T07:13:17;12.25;;;10.18;;
40945;SDS011;55635;50.264;11.918;2023-10-08T07:16:02;16.05;;;10.57;;
40945;SDS011;55635;50.264;11.918;2023-10-08T07:18:44;9.85;;;8.35;;
40945;SDS011;55635;50.264;11.918;2023-10-08T07:21:31;11.15;;;7.03;;
40945;SDS011;55635;50.264;11.918;2023-10-08T07:24:24;5.97;;;5.40;;
40945;SDS011;55635;50.264;11.918;2023-10-08T07:27:05;7.40;;;6.03;;
40945;SDS011;55635;50.264;11.918;2023-10-08T07:29:49;6.05;;;5.45;;
40945;SDS011;55635;50.264;11.918;2023-10-08T07:32:30;5.70;;;5.20;;
40945;SDS011;55635;50.264;11.918;2023-10-08T07:35:11;6.47;;;5.60;;
40945;SDS011;55635;50.264;11.918;2023-10-08T07:38:01;8.07;;;4.75;;
40945;SDS011;55635;50.264;11.918;2023-10-08T07:40:43;6.18;;;4.75;;
40945;SDS011;55635;50.264;11.918;2023-10-08T07:43:24;3.88;;;3.58;;
40945;SDS011;55635;50.264;11.918;2023-10-08T07:46:05;2.38;;;2.17;;
40945;SDS011;55635;50.264;11.918;2023-10-08T07:48:46;2.20;;;2.10;;
40945;SDS011;55635;50.264;11.918;2023-10-08T07:51:27;18.73;;;10.80;;
40945;SDS011;55635;50.264;11.918;2023-10-08T07:54:08;6.25;;;4.35;;
40945;SDS011;55635;50.264;11.918;2023-10-08T07:56:56;3.33;;;3.08;;
40945;SDS011;55635;50.264;11.918;2023-10-08T07:59:49;4.28;;;3.88;;
40945;SDS011;55635;50.264;11.918;2023-10-08T08:02:34;3.00;;;2.70;;
40945;SDS011;55635;50.264;11.918;2023-10-08T08:05:15;2.47;;;1.30;;
40945;SDS011;55635;50.264;11.918;2023-10-08T08:07:57;1.73;;;1.63;;
40945;SDS011;55635;50.264;11.918;2023-10-08T08:10:45;1.45;;;1.10;;
40945;SDS011;55635;50.264;11.918;2023-10-08T08:13:26;1.67;;;0.95;;
40945;SDS011;55635;50.264;11.918;2023-10-08T08:16:08;0.98;;;0.98;;
40945;SDS011;55635;50.264;11.918;2023-10-08T08:18:58;2.05;;;0.68;;
40945;SDS011;55635;50.264;11.918;2023-10-08T08:21:39;1.48;;;0.50;;
40945;SDS011;55635;50.264;11.918;2023-10-08T08:24:25;0.35;;;0.35;;
40945;SDS011;55635;50.264;11.918;2023-10-08T08:27:16;0.30;;;0.30;;
40945;SDS011;55635;50.264;11.918;2023-10-08T08:30:11;0.55;;;0.32;;
40945;SDS011;55635;50.264;11.918;2023-10-08T08:32:55;0.30;;;0.30;;
40945;SDS011;55635;50.264;11.918;2023-10-08T08:35:38;0.10;;;0.10;;
40945;SDS011;55635;50.264;11.918;2023-10-08T08:38:20;0.30;;;0.30;;
40945;SDS011;55635;50.264;11.918;2023-10-08T08:41:01;0.40;;;0.40;;
40945;SDS011;55635;50.264;11.918;2023-10-08T08:43:51;0.40;;;0.40;;
40945;SDS011;55635;50.264;11.918;2023-10-08T08:46:38;0.32;;;0.32;;
40945;SDS011;55635;50.264;11.918;2023-10-08T08:49:20;0.28;;;0.28;;
40945;SDS011;55635;50.264;11.918;2023-10-08T08:52:01;0.40;;;0.40;;
40945;SDS011;55635;50.264;11.918;2023-10-08T08:54:42;0.30;;;0.30;;
40945;SDS011;55635;50.264;11.918;2023-10-08T08:57:23;0.40;;;0.40;;
40945;SDS011;55635;50.264;11.918;2023-10-08T09:00:05;0.32;;;0.32;;
40945;SDS011;55635;50.264;11.918;2023-10-08T09:02:52;1.65;;;0.70;;
40945;SDS011;55635;50.264;11.918;2023-10-08T09:05:33;0.50;;;0.50;;
40945;SDS011;55635;50.264;11.918;2023-10-08T09:08:15;0.60;;;0.60;;
40945;SDS011;55635;50.264;11.918;2023-10-08T09:10:58;0.50;;;0.50;;
40945;SDS011;55635;50.264;11.918;2023-10-08T09:13:41;0.52;;;0.40;;
40945;SDS011;55635;50.264;11.918;2023-10-08T09:16:23;1.65;;;0.73;;
40945;SDS011;55635;50.264;11.918;2023-10-08T09:19:04;0.50;;;0.50;;
40945;SDS011;55635;50.264;11.918;2023-10-08T09:22:05;0.57;;;0.57;;
40945;SDS011;55635;50.264;11.918;2023-10-08T09:24:48;1.05;;;0.57;;
40945;SDS011;55635;50.264;11.918;2023-10-08T09:27:29;0.50;;;0.50;;
40945;SDS011;55635;50.264;11.918;2023-10-08T09:30:11;0.30;;;0.30;;
40945;SDS011;55635;50.264;11.918;2023-10-08T09:32:58;0.47;;;0.32;;
40945;SDS011;55635;50.264;11.918;2023-10-08T09:35:39;0.40;;;0.40;;
40945;SDS011;55635;50.264;11.918;2023-10-08T09:38:20;0.50;;;0.50;;
40945;SDS011;55635;50.264;11.918;2023-10-08T09:41:03;0.38;;;0.30;;
40945;SDS011;55635;50.264;11.918;2023-10-08T09:43:45;0.50;;;0.50;;
40945;SDS011;55635;50.264;11.918;2023-10-08T09:46:29;0.68;;;0.40;;
40945;SDS011;55635;50.264;11.918;2023-10-08T09:49:16;0.30;;;0.30;;
40945;SDS011;55635;50.264;11.918;2023-10-08T09:52:03;0.40;;;0.40;;
40945;SDS011;55635;50.264;11.918;2023-10-08T09:54:52;0.40;;;0.40;;
40945;SDS011;55635;50.264;11.918;2023-10-08T09:57:43;0.70;;;0.60;;
40945;SDS011;55635;50.264;11.918;2023-10-08T10:00:24;0.70;;;0.40;;
40945;SDS011;55635;50.264;11.918;2023-10-08T10:03:12;1.75;;;0.50;;
40945;SDS011;55635;50.264;11.918;2023-10-08T10:05:53;0.47;;;0.47;;
40945;SDS011;55635;50.264;11.918;2023-10-08T10:08:38;0.43;;;0.30;;
40945;SDS011;55635;50.264;11.918;2023-10-08T10:11:20;1.35;;;1.25;;
40945;SDS011;55635;50.264;11.918;2023-10-08T10:14:06;1.27;;;1.13;;
40945;SDS011;55635;50.264;11.918;2023-10-08T10:17:08;1.92;;;1.73;;
40945;SDS011;55635;50.264;11.918;2023-10-08T10:20:00;2.00;;;1.77;;
40945;SDS011;55635;50.264;11.918;2023-10-08T10:22:43;7.72;;;6.00;;
40945;SDS011;55635;50.264;11.918;2023-10-08T10:25:33;3.47;;;3.05;;
40945;SDS011;55635;50.264;11.918;2023-10-08T10:28:23;9.60;;;7.68;;
40945;SDS011;55635;50.264;11.918;2023-10-08T10:31:04;4.82;;;4.38;;
40945;SDS011;55635;50.264;11.918;2023-10-08T10:33:45;4.18;;;3.88;;
40945;SDS011;55635;50.264;11.918;2023-10-08T10:36:26;0.85;;;0.60;;
40945;SDS011;55635;50.264;11.918;2023-10-08T10:39:11;0.30;;;0.30;;
40945;SDS011;55635;50.264;11.918;2023-10-08T10:42:10;0.50;;;0.47;;
40945;SDS011;55635;50.264;11.918;2023-10-08T10:45:00;0.30;;;0.30;;
40945;SDS011;55635;50.264;11.918;2023-10-08T10:47:52;1.00;;;0.80;;
40945;SDS011;55635;50.264;11.918;2023-10-08T10:50:41;0.70;;;0.70;;
40945;SDS011;55635;50.264;11.918;2023-10-08T10:53:40;0.85;;;0.80;;
40945;SDS011;55635;50.264;11.918;2023-10-08T10:56:36;0.70;;;0.52;;
40945;SDS011;55635;50.264;11.918;2023-10-08T10:59:22;0.65;;;0.65;;
40945;SDS011;55635;50.264;11.918;2023-10-08T11:02:07;1.00;;;0.90;;
40945;SDS011;55635;50.264;11.918;2023-10-08T11:04:48;0.60;;;0.55;;
40945;SDS011;55635;50.264;11.918;2023-10-08T11:07:29;1.38;;;1.20;;
40945;SDS011;55635;50.264;11.918;2023-10-08T11:10:13;0.55;;;0.55;;
40945;SDS011;55635;50.264;11.918;2023-10-08T11:12:56;0.63;;;0.55;;
40945;SDS011;55635;50.264;11.918;2023-10-08T11:15:42;0.60;;;0.60;;
40945;SDS011;55635;50.264;11.918;2023-10-08T11:18:29;0.40;;;0.40;;
40945;SDS011;55635;50.264;11.918;2023-10-08T11:21:10;0.57;;;0.57;;
40945;SDS011;55635;50.264;11.918;2023-10-08T11:23:55;0.70;;;0.70;;
40945;SDS011;55635;50.264;11.918;2023-10-08T11:26:39;0.63;;;0.63;;
40945;SDS011;55635;50.264;11.918;2023-10-08T11:29:20;2.08;;;0.80;;
40945;SDS011;55635;50.264;11.918;2023-10-08T11:32:05;0.63;;;0.63;;
40945;SDS011;55635;50.264;11.918;2023-10-08T11:34:59;1.30;;;1.20;;
40945;SDS011;55635;50.264;11.918;2023-10-08T11:37:44;5.03;;;2.97;;
40945;SDS011;55635;50.264;11.918;2023-10-08T11:40:34;1.80;;;0.88;;
40945;SDS011;55635;50.264;11.918;2023-10-08T11:43:29;0.82;;;0.80;;
40945;SDS011;55635;50.264;11.918;2023-10-08T11:46:09;2.15;;;0.90;;
40945;SDS011;55635;50.264;11.918;2023-10-08T11:48:54;0.70;;;0.70;;
40945;SDS011;55635;50.264;11.918;2023-10-08T11:51:38;1.17;;;1.00;;
40945;SDS011;55635;50.264;11.918;2023-10-08T11:54:20;1.20;;;1.00;;
40945;SDS011;55635;50.264;11.918;2023-10-08T11:57:03;1.00;;;0.95;;
40945;SDS011;55635;50.264;11.918;2023-10-08T11:59:44;1.98;;;1.20;;
40945;SDS011;55635;50.264;11.918;2023-10-08T12:02:27;1.58;;;1.48;;
40945;SDS011;55635;50.264;11.918;2023-10-08T12:05:09;0.88;;;0.77;;
40945;SDS011;55635;50.264;11.918;2023-10-08T12:07:58;1.08;;;1.02;;
40945;SDS011;55635;50.264;11.918;2023-10-08T12:10:40;1.90;;;0.90;;
40945;SDS011;55635;50.264;11.918;2023-10-08T12:13:21;0.80;;;0.80;;
40945;SDS011;55635;50.264;11.918;2023-10-08T12:16:05;0.65;;;0.65;;
40945;SDS011;55635;50.264;11.918;2023-10-08T12:18:47;0.70;;;0.70;;
40945;SDS011;55635;50.264;11.918;2023-10-08T12:21:33;0.70;;;0.63;;
40945;SDS011;55635;50.264;11.918;2023-10-08T12:24:13;1.75;;;0.80;;
40945;SDS011;55635;50.264;11.918;2023-10-08T12:26:54;1.55;;;1.45;;
40945;SDS011;55635;50.264;11.918;2023-10-08T12:29:38;1.20;;;1.02;;
40945;SDS011;55635;50.264;11.918;2023-10-08T12:32:19;0.95;;;0.95;;
40945;SDS011;55635;50.264;11.918;2023-10-08T12:35:06;1.20;;;1.10;;
40945;SDS011;55635;50.264;11.918;2023-10-08T12:37:52;0.80;;;0.80;;
40945;SDS011;55635;50.264;11.918;2023-10-08T12:40:34;0.90;;;0.90;;
40945;SDS011;55635;50.264;11.918;2023-10-08T12:43:27;1.13;;;1.10;;
40945;SDS011;55635;50.264;11.918;2023-10-08T12:46:08;1.27;;;1.15;;
40945;SDS011;55635;50.264;11.918;2023-10-08T12:48:58;1.17;;;1.17;;
40945;SDS011;55635;50.264;11.918;2023-10-08T12:51:41;1.25;;;1.20;;
40945;SDS011;55635;50.264;11.918;2023-10-08T12:54:25;2.05;;;1.95;;
40945;SDS011;55635;50.264;11.918;2023-10-08T12:57:09;2.17;;;1.98;;
40945;SDS011;55635;50.264;11.918;2023-10-08T12:59:50;1.27;;;1.17;;
40945;SDS011;55635;50.264;11.918;2023-10-08T13:02:31;1.70;;;1.60;;
40945;SDS011;55635;50.264;11.918;2023-10-08T13:05:14;1.30;;;1.20;;
40945;SDS011;55635;50.264;11.918;2023-10-08T13:07:57;1.50;;;1.40;;
40945;SDS011;55635;50.264;11.918;2023-10-08T13:10:43;1.52;;;1.42;;
40945;SDS011;55635;50.264;11.918;2023-10-08T13:13:24;1.50;;;1.40;;
40945;SDS011;55635;50.264;11.918;2023-10-08T13:16:06;1.20;;;1.10;;
40945;SDS011;55635;50.264;11.918;2023-10-08T13:18:50;2.50;;;1.45;;
40945;SDS011;55635;50.264;11.918;2023-10-08T13:21:32;1.60;;;1.50;;
40945;SDS011;55635;50.264;11.918;2023-10-08T13:24:13;1.05;;;1.00;;
40945;SDS011;55635;50.264;11.918;2023-10-08T13:26:54;1.23;;;1.13;;
40945;SDS011;55635;50.264;11.918;2023-10-08T13:29:34;0.93;;;0.90;;
40945;SDS011;55635;50.264;11.918;2023-10-08T13:32:15;0.80;;;0.80;;
40945;SDS011;55635;50.264;11.918;2023-10-08T13:34:57;2.08;;;1.10;;
40945;SDS011;55635;50.264;11.918;2023-10-08T13:37:39;1.30;;;1.20;;
40945;SDS011;55635;50.264;11.918;2023-10-08T13:40:20;1.85;;;0.80;;
40945;SDS011;55635;50.264;11.918;2023-10-08T13:43:12;1.88;;;1.38;;
40945;SDS011;55635;50.264;11.918;2023-10-08T13:45:53;3.50;;;1.48;;
40945;SDS011;55635;50.264;11.918;2023-10-08T13:48:34;1.50;;;1.33;;
40945;SDS011;55635;50.264;11.918;2023-10-08T13:51:17;1.70;;;1.42;;
40945;SDS011;55635;50.264;11.918;2023-10-08T13:54:05;1.92;;;1.80;;
40945;SDS011;55635;50.264;11.918;2023-10-08T13:56:46;2.03;;;1.70;;
40945;SDS011;55635;50.264;11.918;2023-10-08T13:59:28;2.55;;;2.35;;
40945;SDS011;55635;50.264;11.918;2023-10-08T14:02:11;1.70;;;1.60;;
40945;SDS011;55635;50.264;11.918;2023-10-08T14:04:55;1.60;;;1.50;;
40945;SDS011;55635;50.264;11.918;2023-10-08T14:07:37;2.10;;;1.80;;
40945;SDS011;55635;50.264;11.918;2023-10-08T14:10:18;1.77;;;1.67;;
40945;SDS011;55635;50.264;11.918;2023-10-08T14:13:00;1.48;;;1.38;;
40945;SDS011;55635;50.264;11.918;2023-10-08T14:15:41;1.60;;;1.50;;
40945;SDS011;55635;50.264;11.918;2023-10-08T14:18:26;2.35;;;1.10;;
40945;SDS011;55635;50.264;11.918;2023-10-08T14:21:09;1.58;;;1.48;;
40945;SDS011;55635;50.264;11.918;2023-10-08T14:23:50;1.63;;;1.52;;
40945;SDS011;55635;50.264;11.918;2023-10-08T14:26:32;1.02;;;0.95;;
40945;SDS011;55635;50.264;11.918;2023-10-08T14:29:16;0.80;;;0.80;;
40945;SDS011;55635;50.264;11.918;2023-10-08T14:31:57;1.08;;;0.90;;
40945;SDS011;55635;50.264;11.918;2023-10-08T14:34:39;1.00;;;1.00;;
40945;SDS011;55635;50.264;11.918;2023-10-08T14:37:24;0.70;;;0.70;;
40945;SDS011;55635;50.264;11.918;2023-10-08T14:40:23;0.73;;;0.73;;
40945;SDS011;55635;50.264;11.918;2023-10-08T14:46:04;0.85;;;0.85;;
40945;SDS011;55635;50.264;11.918;2023-10-08T14:48:49;1.63;;;1.52;;
40945;SDS011;55635;50.264;11.918;2023-10-08T14:51:30;3.00;;;1.50;;
40945;SDS011;55635;50.264;11.918;2023-10-08T14:54:11;1.10;;;1.10;;
40945;SDS011;55635;50.264;11.918;2023-10-08T14:56:52;0.82;;;0.82;;
40945;SDS011;55635;50.264;11.918;2023-10-08T14:59:33;1.40;;;1.00;;
40945;SDS011;55635;50.264;11.918;2023-10-08T15:02:14;1.08;;;0.98;;
40945;SDS011;55635;50.264;11.918;2023-10-08T15:04:55;1.30;;;1.20;;
40945;SDS011;55635;50.264;11.918;2023-10-08T15:07:36;1.70;;;1.10;;
40945;SDS011;55635;50.264;11.918;2023-10-08T15:10:19;1.30;;;1.20;;
40945;SDS011;55635;50.264;11.918;2023-10-08T15:13:01;1.15;;;1.08;;
40945;SDS011;55635;50.264;11.918;2023-10-08T15:15:42;1.25;;;1.13;;
40945;SDS011;55635;50.264;11.918;2023-10-08T15:18:23;1.05;;;1.00;;
40945;SDS011;55635;50.264;11.918;2023-10-08T15:21:11;0.90;;;0.90;;
40945;SDS011;55635;50.264;11.918;2023-10-08T15:23:52;0.93;;;0.93;;
40945;SDS011;55635;50.264;11.918;2023-10-08T15:26:33;2.58;;;1.30;;
40945;SDS011;55635;50.264;11.918;2023-10-08T15:29:15;1.42;;;1.33;;
40945;SDS011;55635;50.264;11.918;2023-10-08T15:31:56;1.88;;;1.10;;
40945;SDS011;55635;50.264;11.918;2023-10-08T15:34:37;1.10;;;1.10;;
40945;SDS011;55635;50.264;11.918;2023-10-08T15:37:19;0.80;;;0.80;;
40945;SDS011;55635;50.264;11.918;2023-10-08T15:40:00;0.90;;;0.90;;
40945;SDS011;55635;50.264;11.918;2023-10-08T15:42:50;2.40;;;0.80;;
40945;SDS011;55635;50.264;11.918;2023-10-08T15:45:32;1.10;;;1.00;;
40945;SDS011;55635;50.264;11.918;2023-10-08T15:48:17;1.00;;;1.00;;
40945;SDS011;55635;50.264;11.918;2023-10-08T15:50:58;1.73;;;0.73;;
40945;SDS011;55635;50.264;11.918;2023-10-08T15:53:39;0.80;;;0.80;;
40945;SDS011;55635;50.264;11.918;2023-10-08T15:56:20;1.00;;;1.00;;
40945;SDS011;55635;50.264;11.918;2023-10-08T15:59:01;1.05;;;0.95;;
40945;SDS011;55635;50.264;11.918;2023-10-08T16:01:42;1.25;;;1.00;;
40945;SDS011;55635;50.264;11.918;2023-10-08T16:04:26;0.95;;;0.95;;
40945;SDS011;55635;50.264;11.918;2023-10-08T16:07:08;1.02;;;0.80;;
40945;SDS011;55635;50.264;11.918;2023-10-08T16:09:51;1.13;;;1.02;;
40945;SDS011;55635;50.264;11.918;2023-10-08T16:12:32;1.95;;;0.93;;
40945;SDS011;55635;50.264;11.918;2023-10-08T16:15:13;3.45;;;3.00;;
40945;SDS011;55635;50.264;11.918;2023-10-08T16:17:54;3.60;;;3.30;;
40945;SDS011;55635;50.264;11.918;2023-10-08T16:20:36;3.95;;;3.05;;
40945;SDS011;55635;50.264;11.918;2023-10-08T16:23:18;5.45;;;2.97;;
40945;SDS011;55635;50.264;11.918;2023-10-08T16:26:02;6.07;;;3.38;;